RPN weather

Ben Ya'akov Airport
Rosh Pina, Northern District, Israel

Public forecast

Using degrees Celsius for public forecast. Weather courtesy of forecast.io.

METAR (pilot weather report)

Report is more than 6 hours old.

Retrieved 2019/08/17 15:50 UTC (6 hours ago):

LLIB 171550Z 33009KT 300V360 9999 FEW020 29/19 Q1007

TAF (pilot weather forecast)

Forecast is more than 6 hours old.

Retrieved 2019/08/17 12:00 UTC (10 hours ago):

TAF LLIB 171107Z 1712/1812 30010KT 9999 SCT035 BECMG 1719/1721 VRB03KT SCT020 BECMG 1806/1808 17006KT FEW030 TX34/1712Z TN21/1803Z